sensor_id;sensor_type;location;lat;lon;timestamp;pressure;altitude;pressure_sealevel;temperature;humidity
70589;BME280;58152;49.202;18.744;2023-02-10T00:01:48;99216.66;;;-7.24;51.97
70589;BME280;58152;49.202;18.744;2023-02-10T00:04:13;99218.22;;;-7.26;51.01
70589;BME280;58152;49.202;18.744;2023-02-10T00:06:39;99230.81;;;-7.29;51.95
70589;BME280;58152;49.202;18.744;2023-02-10T00:09:06;99235.50;;;-7.36;51.57
70589;BME280;58152;49.202;18.744;2023-02-10T00:11:32;99246.00;;;-7.47;51.65
70589;BME280;58152;49.202;18.744;2023-02-10T00:14:18;99246.63;;;-7.51;51.77
70589;BME280;58152;49.202;18.744;2023-02-10T00:16:44;99254.88;;;-7.55;51.40
70589;BME280;58152;49.202;18.744;2023-02-10T00:19:09;99252.16;;;-7.58;51.63
70589;BME280;58152;49.202;18.744;2023-02-10T00:21:35;99258.94;;;-7.58;51.53
70589;BME280;58152;49.202;18.744;2023-02-10T00:24:01;99247.66;;;-7.62;51.59
70589;BME280;58152;49.202;18.744;2023-02-10T00:26:26;99247.59;;;-7.63;50.64
70589;BME280;58152;49.202;18.744;2023-02-10T00:28:52;99240.38;;;-7.71;51.52
70589;BME280;58152;49.202;18.744;2023-02-10T00:31:18;99244.72;;;-7.70;51.58
70589;BME280;58152;49.202;18.744;2023-02-10T00:33:44;99242.84;;;-7.72;52.68
70589;BME280;58152;49.202;18.744;2023-02-10T00:36:12;99251.19;;;-7.75;52.38
70589;BME280;58152;49.202;18.744;2023-02-10T00:38:39;99240.84;;;-7.78;52.26
70589;BME280;58152;49.202;18.744;2023-02-10T00:41:06;99244.56;;;-7.87;51.54
70589;BME280;58152;49.202;18.744;2023-02-10T00:43:32;99238.28;;;-7.93;52.02
70589;BME280;58152;49.202;18.744;2023-02-10T00:45:57;99230.31;;;-7.99;52.37
70589;BME280;58152;49.202;18.744;2023-02-10T00:48:23;99229.50;;;-7.98;52.53
70589;BME280;58152;49.202;18.744;2023-02-10T00:50:48;99231.78;;;-8.02;52.97
70589;BME280;58152;49.202;18.744;2023-02-10T00:53:14;99233.47;;;-8.03;52.79
70589;BME280;58152;49.202;18.744;2023-02-10T00:55:39;99228.91;;;-8.08;52.23
70589;BME280;58152;49.202;18.744;2023-02-10T00:58:05;99231.63;;;-8.05;52.62
70589;BME280;58152;49.202;18.744;2023-02-10T01:00:30;99228.97;;;-8.07;52.62
70589;BME280;58152;49.202;18.744;2023-02-10T01:02:55;99228.56;;;-8.14;52.09
70589;BME280;58152;49.202;18.744;2023-02-10T01:05:21;99209.41;;;-8.23;51.29
70589;BME280;58152;49.202;18.744;2023-02-10T01:07:46;99220.72;;;-8.32;51.15
70589;BME280;58152;49.202;18.744;2023-02-10T01:10:12;99209.44;;;-8.37;51.29
70589;BME280;58152;49.202;18.744;2023-02-10T01:12:37;99207.66;;;-8.38;51.60
70589;BME280;58152;49.202;18.744;2023-02-10T01:15:03;99216.88;;;-8.40;51.44
70589;BME280;58152;49.202;18.744;2023-02-10T01:17:28;99211.44;;;-8.47;51.86
70589;BME280;58152;49.202;18.744;2023-02-10T01:19:54;99201.75;;;-8.52;51.64
70589;BME280;58152;49.202;18.744;2023-02-10T01:22:19;99216.25;;;-8.51;51.94
70589;BME280;58152;49.202;18.744;2023-02-10T01:24:45;99228.81;;;-8.54;51.75
70589;BME280;58152;49.202;18.744;2023-02-10T01:27:10;99226.84;;;-8.58;51.32
70589;BME280;58152;49.202;18.744;2023-02-10T01:29:35;99233.34;;;-8.63;51.59
70589;BME280;58152;49.202;18.744;2023-02-10T01:32:01;99255.66;;;-8.59;52.25
70589;BME280;58152;49.202;18.744;2023-02-10T01:34:26;99250.38;;;-8.62;52.73
70589;BME280;58152;49.202;18.744;2023-02-10T01:36:51;99246.34;;;-8.59;52.89
70589;BME280;58152;49.202;18.744;2023-02-10T01:39:17;99248.81;;;-8.60;52.80
70589;BME280;58152;49.202;18.744;2023-02-10T01:41:42;99245.38;;;-8.61;53.35
70589;BME280;58152;49.202;18.744;2023-02-10T01:46:46;99253.47;;;-8.53;53.10
70589;BME280;58152;49.202;18.744;2023-02-10T01:49:15;99256.59;;;-8.57;52.90
70589;BME280;58152;49.202;18.744;2023-02-10T01:51:50;99250.28;;;-8.64;53.18
70589;BME280;58152;49.202;18.744;2023-02-10T01:54:21;99263.41;;;-8.71;53.25
70589;BME280;58152;49.202;18.744;2023-02-10T01:56:48;99251.13;;;-8.78;53.32
70589;BME280;58152;49.202;18.744;2023-02-10T01:59:15;99249.09;;;-8.84;54.00
70589;BME280;58152;49.202;18.744;2023-02-10T02:01:41;99244.50;;;-8.89;53.45
70589;BME280;58152;49.202;18.744;2023-02-10T02:04:06;99229.38;;;-9.01;54.25
70589;BME280;58152;49.202;18.744;2023-02-10T02:06:32;99227.50;;;-9.04;53.98
70589;BME280;58152;49.202;18.744;2023-02-10T02:09:00;99223.72;;;-9.10;54.91
70589;BME280;58152;49.202;18.744;2023-02-10T02:11:31;99225.56;;;-9.08;55.04
70589;BME280;58152;49.202;18.744;2023-02-10T02:14:50;99227.50;;;-9.04;54.23
70589;BME280;58152;49.202;18.744;2023-02-10T02:22:32;99223.31;;;-9.03;53.67
70589;BME280;58152;49.202;18.744;2023-02-10T02:33:49;99190.56;;;-9.12;54.17
70589;BME280;58152;49.202;18.744;2023-02-10T02:36:35;99199.84;;;-9.12;54.20
70589;BME280;58152;49.202;18.744;2023-02-10T02:39:04;99202.22;;;-9.15;54.08
70589;BME280;58152;49.202;18.744;2023-02-10T02:41:31;99205.66;;;-9.15;54.65
70589;BME280;58152;49.202;18.744;2023-02-10T02:43:58;99193.44;;;-9.20;54.57
70589;BME280;58152;49.202;18.744;2023-02-10T02:52:26;99196.75;;;-9.22;54.10
70589;BME280;58152;49.202;18.744;2023-02-10T02:55:03;99192.88;;;-9.30;54.39
70589;BME280;58152;49.202;18.744;2023-02-10T02:57:51;99223.38;;;-9.30;55.36
70589;BME280;58152;49.202;18.744;2023-02-10T03:00:26;99222.13;;;-9.36;54.65
70589;BME280;58152;49.202;18.744;2023-02-10T03:02:53;99209.31;;;-9.38;54.73
70589;BME280;58152;49.202;18.744;2023-02-10T03:05:20;99210.88;;;-9.40;54.40
70589;BME280;58152;49.202;18.744;2023-02-10T03:07:47;99207.56;;;-9.39;54.30
70589;BME280;58152;49.202;18.744;2023-02-10T03:10:13;99199.66;;;-9.43;54.23
70589;BME280;58152;49.202;18.744;2023-02-10T03:12:38;99202.78;;;-9.48;55.07
70589;BME280;58152;49.202;18.744;2023-02-10T03:15:04;99199.97;;;-9.52;54.33
70589;BME280;58152;49.202;18.744;2023-02-10T03:17:29;99215.28;;;-9.51;55.36
70589;BME280;58152;49.202;18.744;2023-02-10T03:19:55;99211.69;;;-9.54;54.50
70589;BME280;58152;49.202;18.744;2023-02-10T03:22:20;99206.50;;;-9.56;53.56
70589;BME280;58152;49.202;18.744;2023-02-10T03:24:46;99210.50;;;-9.59;54.00
70589;BME280;58152;49.202;18.744;2023-02-10T03:27:11;99200.63;;;-9.68;54.92
70589;BME280;58152;49.202;18.744;2023-02-10T03:29:36;99221.16;;;-9.65;55.28
70589;BME280;58152;49.202;18.744;2023-02-10T03:32:02;99209.84;;;-9.70;55.56
70589;BME280;58152;49.202;18.744;2023-02-10T03:34:28;99216.00;;;-9.66;55.07
70589;BME280;58152;49.202;18.744;2023-02-10T03:36:54;99212.38;;;-9.70;55.03
70589;BME280;58152;49.202;18.744;2023-02-10T03:39:19;99220.69;;;-9.73;53.87
70589;BME280;58152;49.202;18.744;2023-02-10T03:41:45;99213.63;;;-9.77;54.73
70589;BME280;58152;49.202;18.744;2023-02-10T03:44:10;99214.13;;;-9.82;54.63
70589;BME280;58152;49.202;18.744;2023-02-10T03:46:36;99228.13;;;-9.76;55.21
70589;BME280;58152;49.202;18.744;2023-02-10T03:49:03;99213.75;;;-9.75;54.40
70589;BME280;58152;49.202;18.744;2023-02-10T03:51:29;99196.66;;;-9.78;55.93
70589;BME280;58152;49.202;18.744;2023-02-10T03:53:54;99212.69;;;-9.79;55.64
70589;BME280;58152;49.202;18.744;2023-02-10T03:56:20;99211.09;;;-9.77;56.17
70589;BME280;58152;49.202;18.744;2023-02-10T03:58:45;99209.44;;;-9.76;55.72
70589;BME280;58152;49.202;18.744;2023-02-10T04:01:12;99209.34;;;-9.78;54.89
70589;BME280;58152;49.202;18.744;2023-02-10T04:03:39;99221.66;;;-9.84;54.93
70589;BME280;58152;49.202;18.744;2023-02-10T04:06:04;99223.13;;;-9.87;54.25
70589;BME280;58152;49.202;18.744;2023-02-10T04:08:30;99214.13;;;-9.95;54.22
70589;BME280;58152;49.202;18.744;2023-02-10T04:10:55;99217.38;;;-9.98;54.35
70589;BME280;58152;49.202;18.744;2023-02-10T04:13:20;99220.50;;;-10.02;55.30
70589;BME280;58152;49.202;18.744;2023-02-10T04:15:46;99210.91;;;-10.06;54.77
70589;BME280;58152;49.202;18.744;2023-02-10T04:18:12;99212.44;;;-10.08;54.98
70589;BME280;58152;49.202;18.744;2023-02-10T04:20:38;99221.56;;;-10.12;54.22
70589;BME280;58152;49.202;18.744;2023-02-10T04:23:03;99217.13;;;-10.14;54.39
70589;BME280;58152;49.202;18.744;2023-02-10T04:25:28;99213.63;;;-10.16;54.21
70589;BME280;58152;49.202;18.744;2023-02-10T04:27:54;99213.63;;;-10.16;54.74
70589;BME280;58152;49.202;18.744;2023-02-10T04:30:19;99218.13;;;-10.12;55.37
70589;BME280;58152;49.202;18.744;2023-02-10T04:32:45;99214.69;;;-10.13;55.77
70589;BME280;58152;49.202;18.744;2023-02-10T04:35:10;99230.03;;;-10.11;55.22
70589;BME280;58152;49.202;18.744;2023-02-10T04:37:35;99214.69;;;-10.13;55.23
70589;BME280;58152;49.202;18.744;2023-02-10T04:40:01;99211.97;;;-10.16;55.43
70589;BME280;58152;49.202;18.744;2023-02-10T04:42:26;99202.31;;;-10.21;55.75
70589;BME280;58152;49.202;18.744;2023-02-10T04:44:56;99213.22;;;-10.23;55.91
70589;BME280;58152;49.202;18.744;2023-02-10T04:47:24;99208.00;;;-10.26;56.07
70589;BME280;58152;49.202;18.744;2023-02-10T04:49:50;99216.28;;;-10.28;56.04
70589;BME280;58152;49.202;18.744;2023-02-10T04:52:15;99214.13;;;-10.35;55.40
70589;BME280;58152;49.202;18.744;2023-02-10T04:54:40;99203.97;;;-10.35;55.64
70589;BME280;58152;49.202;18.744;2023-02-10T04:57:06;99198.22;;;-10.33;55.48
70589;BME280;58152;49.202;18.744;2023-02-10T04:59:31;99209.34;;;-10.31;56.49
70589;BME280;58152;49.202;18.744;2023-02-10T05:01:56;99213.44;;;-10.33;55.76
70589;BME280;58152;49.202;18.744;2023-02-10T05:04:22;99208.16;;;-10.36;55.03
70589;BME280;58152;49.202;18.744;2023-02-10T05:06:47;99206.66;;;-10.45;54.81
70589;BME280;58152;49.202;18.744;2023-02-10T05:09:13;99207.25;;;-10.50;55.26
70589;BME280;58152;49.202;18.744;2023-02-10T05:11:38;99209.47;;;-10.54;54.53
70589;BME280;58152;49.202;18.744;2023-02-10T05:14:04;99208.72;;;-10.53;54.72
70589;BME280;58152;49.202;18.744;2023-02-10T05:16:30;99207.81;;;-10.54;54.78
70589;BME280;58152;49.202;18.744;2023-02-10T05:18:55;99204.41;;;-10.54;54.53
70589;BME280;58152;49.202;18.744;2023-02-10T05:21:20;99208.41;;;-10.58;54.78
70589;BME280;58152;49.202;18.744;2023-02-10T05:23:46;99219.31;;;-10.59;55.04
70589;BME280;58152;49.202;18.744;2023-02-10T05:26:11;99226.84;;;-10.60;54.15
70589;BME280;58152;49.202;18.744;2023-02-10T05:28:37;99233.56;;;-10.61;55.11
70589;BME280;58152;49.202;18.744;2023-02-10T05:31:02;99231.59;;;-10.65;55.18
70589;BME280;58152;49.202;18.744;2023-02-10T05:33:31;99232.94;;;-10.70;54.94
70589;BME280;58152;49.202;18.744;2023-02-10T05:35:57;99236.56;;;-10.66;54.35
70589;BME280;58152;49.202;18.744;2023-02-10T05:38:22;99226.88;;;-10.72;55.34
70589;BME280;58152;49.202;18.744;2023-02-10T05:40:48;99244.06;;;-10.68;56.14
70589;BME280;58152;49.202;18.744;2023-02-10T05:43:14;99244.19;;;-10.66;55.92
70589;BME280;58152;49.202;18.744;2023-02-10T05:45:39;99240.66;;;-10.68;56.09
70589;BME280;58152;49.202;18.744;2023-02-10T05:48:07;99253.47;;;-10.67;55.93
70589;BME280;58152;49.202;18.744;2023-02-10T05:50:33;99246.59;;;-10.68;55.92
70589;BME280;58152;49.202;18.744;2023-02-10T05:52:59;99253.91;;;-10.72;55.22
70589;BME280;58152;49.202;18.744;2023-02-10T05:55:24;99245.97;;;-10.77;55.34
70589;BME280;58152;49.202;18.744;2023-02-10T05:57:51;99251.94;;;-10.77;55.35
70589;BME280;58152;49.202;18.744;2023-02-10T06:00:17;99256.91;;;-10.78;55.89
70589;BME280;58152;49.202;18.744;2023-02-10T06:02:42;99264.41;;;-10.80;55.09
70589;BME280;58152;49.202;18.744;2023-02-10T06:05:08;99281.72;;;-10.86;55.76
70589;BME280;58152;49.202;18.744;2023-02-10T06:07:33;99280.75;;;-10.88;55.21
70589;BME280;58152;49.202;18.744;2023-02-10T06:09:59;99274.81;;;-10.88;55.10
70589;BME280;58152;49.202;18.744;2023-02-10T06:12:24;99283.84;;;-10.92;55.32
70589;BME280;58152;49.202;18.744;2023-02-10T06:14:57;99286.38;;;-10.92;54.49
70589;BME280;58152;49.202;18.744;2023-02-10T06:17:22;99280.69;;;-11.01;54.76
70589;BME280;58152;49.202;18.744;2023-02-10T06:19:48;99290.19;;;-10.98;55.07
70589;BME280;58152;49.202;18.744;2023-02-10T06:22:14;99296.69;;;-11.02;54.91
70589;BME280;58152;49.202;18.744;2023-02-10T06:24:39;99286.53;;;-11.02;55.25
70589;BME280;58152;49.202;18.744;2023-02-10T06:27:06;99270.22;;;-11.06;55.49
70589;BME280;58152;49.202;18.744;2023-02-10T06:29:32;99282.44;;;-11.00;55.92
70589;BME280;58152;49.202;18.744;2023-02-10T06:31:58;99285.97;;;-10.98;56.34
70589;BME280;58152;49.202;18.744;2023-02-10T06:34:23;99275.72;;;-10.99;56.21
70589;BME280;58152;49.202;18.744;2023-02-10T06:36:49;99295.13;;;-11.00;56.47
70589;BME280;58152;49.202;18.744;2023-02-10T06:39:14;99300.50;;;-10.95;56.00
70589;BME280;58152;49.202;18.744;2023-02-10T06:41:40;99304.69;;;-10.96;55.65
70589;BME280;58152;49.202;18.744;2023-02-10T06:47:07;99312.66;;;-11.03;54.33
70589;BME280;58152;49.202;18.744;2023-02-10T06:49:32;99297.00;;;-11.09;55.43
70589;BME280;58152;49.202;18.744;2023-02-10T06:51:58;99303.19;;;-11.06;55.21
70589;BME280;58152;49.202;18.744;2023-02-10T06:54:23;99307.69;;;-11.02;55.19
70589;BME280;58152;49.202;18.744;2023-02-10T06:56:49;99314.44;;;-11.02;55.84
70589;BME280;58152;49.202;18.744;2023-02-10T06:59:14;99318.06;;;-10.98;55.67
70589;BME280;58152;49.202;18.744;2023-02-10T07:01:40;99305.94;;;-11.03;55.09
70589;BME280;58152;49.202;18.744;2023-02-10T07:04:05;99311.88;;;-11.02;56.12
70589;BME280;58152;49.202;18.744;2023-02-10T07:06:31;99305.94;;;-11.03;56.71
70589;BME280;58152;49.202;18.744;2023-02-10T07:08:56;99300.09;;;-11.02;56.52
70589;BME280;58152;49.202;18.744;2023-02-10T07:11:23;99313.00;;;-10.98;55.77
70589;BME280;58152;49.202;18.744;2023-02-10T07:13:48;99310.22;;;-11.02;56.57
70589;BME280;58152;49.202;18.744;2023-02-10T07:16:14;99318.72;;;-11.01;56.41
70589;BME280;58152;49.202;18.744;2023-02-10T07:18:42;99314.34;;;-11.04;56.31
70589;BME280;58152;49.202;18.744;2023-02-10T07:21:08;99325.88;;;-10.95;56.27
70589;BME280;58152;49.202;18.744;2023-02-10T07:23:33;99327.84;;;-10.91;56.08
70589;BME280;58152;49.202;18.744;2023-02-10T07:25:59;99325.63;;;-10.87;56.45
70589;BME280;58152;49.202;18.744;2023-02-10T07:28:24;99320.69;;;-10.85;56.47
70589;BME280;58152;49.202;18.744;2023-02-10T07:30:50;99314.81;;;-10.84;56.14
70589;BME280;58152;49.202;18.744;2023-02-10T07:33:15;99318.56;;;-10.79;57.16
70589;BME280;58152;49.202;18.744;2023-02-10T07:35:40;99332.66;;;-10.71;57.28
70589;BME280;58152;49.202;18.744;2023-02-10T07:38:06;99331.97;;;-10.68;57.72
70589;BME280;58152;49.202;18.744;2023-02-10T07:40:31;99325.16;;;-10.69;57.23
70589;BME280;58152;49.202;18.744;2023-02-10T07:42:57;99316.97;;;-10.65;57.62
70589;BME280;58152;49.202;18.744;2023-02-10T07:45:22;99328.63;;;-10.56;57.71
70589;BME280;58152;49.202;18.744;2023-02-10T07:47:48;99317.81;;;-10.53;57.57
70589;BME280;58152;49.202;18.744;2023-02-10T07:50:13;99323.22;;;-10.48;57.68
70589;BME280;58152;49.202;18.744;2023-02-10T07:52:39;99307.06;;;-10.49;57.21
70589;BME280;58152;49.202;18.744;2023-02-10T07:55:07;99311.81;;;-10.42;57.36
70589;BME280;58152;49.202;18.744;2023-02-10T07:57:32;99317.09;;;-10.39;57.07
70589;BME280;58152;49.202;18.744;2023-02-10T07:59:58;99310.44;;;-10.37;57.81
70589;BME280;58152;49.202;18.744;2023-02-10T08:02:23;99317.72;;;-10.30;58.15
70589;BME280;58152;49.202;18.744;2023-02-10T08:04:48;99318.69;;;-10.28;58.36
70589;BME280;58152;49.202;18.744;2023-02-10T08:07:14;99317.16;;;-10.26;58.53
70589;BME280;58152;49.202;18.744;2023-02-10T08:09:40;99318.31;;;-10.20;58.28
70589;BME280;58152;49.202;18.744;2023-02-10T08:12:08;99317.50;;;-10.19;57.76
70589;BME280;58152;49.202;18.744;2023-02-10T08:14:34;99317.41;;;-10.21;58.43
70589;BME280;58152;49.202;18.744;2023-02-10T08:16:59;99322.25;;;-10.12;58.78
70589;BME280;58152;49.202;18.744;2023-02-10T08:19:24;99326.84;;;-10.07;58.94
70589;BME280;58152;49.202;18.744;2023-02-10T08:21:50;99318.75;;;-10.01;58.70
70589;BME280;58152;49.202;18.744;2023-02-10T08:24:15;99332.63;;;-9.96;58.27
70589;BME280;58152;49.202;18.744;2023-02-10T08:26:41;99327.44;;;-9.98;59.24
70589;BME280;58152;49.202;18.744;2023-02-10T08:29:07;99333.13;;;-9.88;58.96
70589;BME280;58152;49.202;18.744;2023-02-10T08:31:32;99330.47;;;-9.90;59.53
70589;BME280;58152;49.202;18.744;2023-02-10T08:33:57;99332.66;;;-9.83;59.99
70589;BME280;58152;49.202;18.744;2023-02-10T08:36:23;99331.88;;;-9.82;59.07
70589;BME280;58152;49.202;18.744;2023-02-10T08:38:50;99332.28;;;-9.76;59.07
70589;BME280;58152;49.202;18.744;2023-02-10T08:41:17;99328.09;;;-9.75;59.35
70589;BME280;58152;49.202;18.744;2023-02-10T08:43:43;99327.50;;;-9.71;59.99
70589;BME280;58152;49.202;18.744;2023-02-10T08:46:09;99338.84;;;-9.66;59.66
70589;BME280;58152;49.202;18.744;2023-02-10T08:48:35;99347.44;;;-9.64;59.85
70589;BME280;58152;49.202;18.744;2023-02-10T08:51:05;99344.63;;;-9.55;59.09
70589;BME280;58152;49.202;18.744;2023-02-10T08:53:31;99334.44;;;-9.55;60.00
70589;BME280;58152;49.202;18.744;2023-02-10T08:56:02;99330.63;;;-9.49;59.42
70589;BME280;58152;49.202;18.744;2023-02-10T08:58:28;99320.88;;;-9.42;59.37
70589;BME280;58152;49.202;18.744;2023-02-10T09:00:53;99323.78;;;-9.36;59.70
70589;BME280;58152;49.202;18.744;2023-02-10T09:03:19;99325.66;;;-9.34;60.54
70589;BME280;58152;49.202;18.744;2023-02-10T09:05:44;99328.59;;;-9.28;60.14
70589;BME280;58152;49.202;18.744;2023-02-10T09:08:12;99325.47;;;-9.24;59.94
70589;BME280;58152;49.202;18.744;2023-02-10T09:10:39;99334.47;;;-9.15;60.10
70589;BME280;58152;49.202;18.744;2023-02-10T09:13:04;99318.63;;;-9.11;60.39
70589;BME280;58152;49.202;18.744;2023-02-10T09:15:30;99325.84;;;-9.04;60.33
70589;BME280;58152;49.202;18.744;2023-02-10T09:17:55;99327.19;;;-8.96;60.06
70589;BME280;58152;49.202;18.744;2023-02-10T09:20:21;99317.22;;;-8.93;60.57
70589;BME280;58152;49.202;18.744;2023-02-10T09:22:46;99326.09;;;-8.86;60.30
70589;BME280;58152;49.202;18.744;2023-02-10T09:25:13;99322.38;;;-8.78;61.09
70589;BME280;58152;49.202;18.744;2023-02-10T09:27:39;99320.91;;;-8.75;60.46
70589;BME280;58152;49.202;18.744;2023-02-10T09:30:04;99314.44;;;-8.69;60.82
70589;BME280;58152;49.202;18.744;2023-02-10T09:32:30;99314.13;;;-8.61;60.88
70589;BME280;58152;49.202;18.744;2023-02-10T09:34:55;99314.38;;;-8.56;61.08
70589;BME280;58152;49.202;18.744;2023-02-10T09:37:21;99315.72;;;-8.48;60.85
70589;BME280;58152;49.202;18.744;2023-02-10T09:39:46;99317.66;;;-8.44;60.56
70589;BME280;58152;49.202;18.744;2023-02-10T09:42:46;99316.00;;;-8.29;61.55
70589;BME280;58152;49.202;18.744;2023-02-10T09:45:25;99303.19;;;-8.15;60.73
70589;BME280;58152;49.202;18.744;2023-02-10T09:47:57;99314.84;;;-7.91;60.46
70589;BME280;58152;49.202;18.744;2023-02-10T09:50:51;99313.16;;;-7.61;60.46
70589;BME280;58152;49.202;18.744;2023-02-10T09:53:21;99315.63;;;-7.33;59.92
70589;BME280;58152;49.202;18.744;2023-02-10T09:55:54;99300.06;;;-7.06;59.66
70589;BME280;58152;49.202;18.744;2023-02-10T09:58:36;99290.56;;;-6.78;60.32
70589;BME280;58152;49.202;18.744;2023-02-10T10:04:03;99298.41;;;-6.26;59.57
70589;BME280;58152;49.202;18.744;2023-02-10T10:06:37;99292.63;;;-6.05;59.34
70589;BME280;58152;49.202;18.744;2023-02-10T10:14:33;99264.31;;;-5.40;58.04
70589;BME280;58152;49.202;18.744;2023-02-10T10:17:09;99266.91;;;-5.21;57.45
70589;BME280;58152;49.202;18.744;2023-02-10T10:19:38;99258.25;;;-5.05;57.60
70589;BME280;58152;49.202;18.744;2023-02-10T10:27:52;99237.22;;;-4.41;57.62
70589;BME280;58152;49.202;18.744;2023-02-10T10:32:58;99243.38;;;-3.97;55.65
70589;BME280;58152;49.202;18.744;2023-02-10T10:35:30;99250.84;;;-3.83;55.65
70589;BME280;58152;49.202;18.744;2023-02-10T10:38:23;99257.34;;;-3.70;55.94
70589;BME280;58152;49.202;18.744;2023-02-10T10:40:55;99252.97;;;-3.51;55.10
70589;BME280;58152;49.202;18.744;2023-02-10T10:43:26;99255.31;;;-3.35;54.70
70589;BME280;58152;49.202;18.744;2023-02-10T10:45:57;99234.41;;;-3.23;54.79
70589;BME280;58152;49.202;18.744;2023-02-10T10:48:26;99236.69;;;-3.09;53.91
70589;BME280;58152;49.202;18.744;2023-02-10T10:50:58;99247.66;;;-2.90;54.57
70589;BME280;58152;49.202;18.744;2023-02-10T10:53:38;99238.78;;;-2.76;53.68
70589;BME280;58152;49.202;18.744;2023-02-10T10:56:07;99240.16;;;-2.62;53.79
70589;BME280;58152;49.202;18.744;2023-02-10T10:58:39;99233.06;;;-2.45;53.34
70589;BME280;58152;49.202;18.744;2023-02-10T11:01:05;99232.81;;;-2.28;53.14
70589;BME280;58152;49.202;18.744;2023-02-10T11:03:31;99217.94;;;-2.12;53.29
70589;BME280;58152;49.202;18.744;2023-02-10T11:06:16;99226.41;;;-1.90;52.73
70589;BME280;58152;49.202;18.744;2023-02-10T11:08:58;99212.56;;;-1.68;52.71
70589;BME280;58152;49.202;18.744;2023-02-10T11:11:37;99212.16;;;-1.54;53.09
70589;BME280;58152;49.202;18.744;2023-02-10T11:14:36;99216.88;;;-1.40;52.28
70589;BME280;58152;49.202;18.744;2023-02-10T11:16:58;99202.59;;;-1.31;52.52
70589;BME280;58152;49.202;18.744;2023-02-10T11:19:30;99206.50;;;-1.15;51.52
70589;BME280;58152;49.202;18.744;2023-02-10T11:21:56;99210.41;;;-1.00;52.04
70589;BME280;58152;49.202;18.744;2023-02-10T11:29:22;99202.47;;;-0.46;51.99
70589;BME280;58152;49.202;18.744;2023-02-10T11:31:50;99207.34;;;-0.27;51.75
70589;BME280;58152;49.202;18.744;2023-02-10T11:34:29;99204.25;;;-0.45;52.38
70589;BME280;58152;49.202;18.744;2023-02-10T11:36:57;99198.56;;;-0.32;52.20
70589;BME280;58152;49.202;18.744;2023-02-10T11:39:31;99201.47;;;-0.21;51.73
70589;BME280;58152;49.202;18.744;2023-02-10T11:42:11;99192.28;;;-0.10;51.54
70589;BME280;58152;49.202;18.744;2023-02-10T11:44:41;99191.63;;;-0.03;51.43
70589;BME280;58152;49.202;18.744;2023-02-10T11:47:14;99186.13;;;0.18;50.76
70589;BME280;58152;49.202;18.744;2023-02-10T11:49:46;99185.44;;;0.25;50.84
70589;BME280;58152;49.202;18.744;2023-02-10T11:52:12;99169.16;;;0.28;50.88
70589;BME280;58152;49.202;18.744;2023-02-10T11:54:39;99165.75;;;0.29;50.71
70589;BME280;58152;49.202;18.744;2023-02-10T11:57:27;99164.94;;;0.31;49.97
70589;BME280;58152;49.202;18.744;2023-02-10T12:09:15;99148.88;;;0.44;49.36
70589;BME280;58152;49.202;18.744;2023-02-10T12:17:44;99164.22;;;0.37;50.07
70589;BME280;58152;49.202;18.744;2023-02-10T12:20:25;99166.22;;;0.48;49.14
70589;BME280;58152;49.202;18.744;2023-02-10T12:23:30;99166.75;;;0.71;49.09
70589;BME280;58152;49.202;18.744;2023-02-10T12:26:20;99166.56;;;1.01;48.74
70589;BME280;58152;49.202;18.744;2023-02-10T12:32:02;99163.03;;;0.99;48.55
70589;BME280;58152;49.202;18.744;2023-02-10T12:54:00;99160.53;;;0.63;49.37
70589;BME280;58152;49.202;18.744;2023-02-10T12:56:33;99150.03;;;0.56;49.84
70589;BME280;58152;49.202;18.744;2023-02-10T12:59:16;99152.44;;;0.49;49.84
70589;BME280;58152;49.202;18.744;2023-02-10T13:01:54;99158.31;;;0.42;49.95
70589;BME280;58152;49.202;18.744;2023-02-10T13:04:32;99158.13;;;0.35;50.34
70589;BME280;58152;49.202;18.744;2023-02-10T13:07:24;99157.88;;;0.24;50.84
70589;BME280;58152;49.202;18.744;2023-02-10T13:12:31;99165.09;;;0.03;50.44
70589;BME280;58152;49.202;18.744;2023-02-10T13:15:23;99163.19;;;-0.05;50.86
70589;BME280;58152;49.202;18.744;2023-02-10T13:17:50;99154.31;;;-0.14;51.16
70589;BME280;58152;49.202;18.744;2023-02-10T13:20:30;99156.84;;;-0.17;50.99
70589;BME280;58152;49.202;18.744;2023-02-10T13:23:21;99158.47;;;-0.21;51.62
70589;BME280;58152;49.202;18.744;2023-02-10T13:28:39;99169.44;;;-0.28;51.51
70589;BME280;58152;49.202;18.744;2023-02-10T13:34:03;99169.50;;;-0.27;51.74
70589;BME280;58152;49.202;18.744;2023-02-10T13:36:33;99156.63;;;-0.27;51.74
70589;BME280;58152;49.202;18.744;2023-02-10T13:39:04;99168.69;;;-0.24;51.36
70589;BME280;58152;49.202;18.744;2023-02-10T13:41:35;99180.00;;;-0.19;51.52
70589;BME280;58152;49.202;18.744;2023-02-10T13:44:19;99176.78;;;-0.10;51.15
70589;BME280;58152;49.202;18.744;2023-02-10T13:46:53;99171.84;;;-0.03;51.21
70589;BME280;58152;49.202;18.744;2023-02-10T13:49:20;99158.31;;;0.06;51.11
70589;BME280;58152;49.202;18.744;2023-02-10T13:51:46;99171.69;;;0.26;51.25
70589;BME280;58152;49.202;18.744;2023-02-10T13:54:32;99181.81;;;0.53;50.74
70589;BME280;58152;49.202;18.744;2023-02-10T13:56:58;99183.63;;;0.56;50.41
70589;BME280;58152;49.202;18.744;2023-02-10T13:59:35;99190.72;;;0.66;50.54
70589;BME280;58152;49.202;18.744;2023-02-10T14:02:16;99181.56;;;0.80;49.96
70589;BME280;58152;49.202;18.744;2023-02-10T14:04:50;99168.22;;;0.99;50.29
70589;BME280;58152;49.202;18.744;2023-02-10T14:10:25;99165.16;;;1.19;50.00
70589;BME280;58152;49.202;18.744;2023-02-10T14:12:57;99171.38;;;1.27;49.71
70589;BME280;58152;49.202;18.744;2023-02-10T14:15:26;99174.78;;;1.24;49.46
70589;BME280;58152;49.202;18.744;2023-02-10T14:17:57;99185.94;;;1.22;49.45
70589;BME280;58152;49.202;18.744;2023-02-10T14:20:30;99185.06;;;1.21;50.26
70589;BME280;58152;49.202;18.744;2023-02-10T14:22:56;99197.88;;;1.15;50.06
70589;BME280;58152;49.202;18.744;2023-02-10T14:25:39;99188.25;;;1.10;49.32
70589;BME280;58152;49.202;18.744;2023-02-10T14:28:17;99185.72;;;1.13;49.81
70589;BME280;58152;49.202;18.744;2023-02-10T14:30:45;99188.50;;;1.20;49.46
70589;BME280;58152;49.202;18.744;2023-02-10T14:33:20;99184.16;;;1.19;49.09